Terminal Aerodrome Forecast
Issued by NWS

Home | Current Version | Previous Version | Text Only | Print | Product List | Glossary On
Versions: 1 2 3 4 5 6 7 8 9 10 11 12 13 14 15 16
000
FTUS44 KMAF 261600 AAA
TAFINK
TAF AMD
KINK 261605Z 2616/2712 28012KT P6SM BKN200
     FM261700 27016G24KT P6SM BKN200
     FM262000 25027G35KT 5SM -SHRA BLDU SCT100 BKN150
     FM270100 25014G21KT P6SM BKN150=

USA.gov is the U.S. government's official web portal to all federal, state and local government web resources and services.